A- A+ FrançaisEnglishEspañol中国

Services sur Internet Soldes sur Internet Des idées de cadeaux Météo Météo aéro

La météo à : Autours de vous Tarbes-Lourdes-PyrénéesPontoise-Cormeilles-En-VexinChateauroux-Deols Paris-Orly

manche à air

La météo aéronautique pour les pilotes, la préparation du vol avec les METAR (METeorological Aerodrome Report, message d'observation des conditions météorologiques pour l'aviation) et Les TAF (Terminal Aerodrome Forecast : message de prévision à court terme des conditions météorologiques pour l'aviation). Et les autres ressources comme les VAC (Visual Approch Chart) et les NOTAM (Notice To Airman) pour préprer les vols.

Aéroport Buffalo Narrows (Canada) / OACI CYVT/ IATA YVT

L'altitude de l'aéroport Buffalo Narrows est de 434 m = 1424 ft. Il est situé à proximité de Buffalo Narrows (Canada). La météo générale à 5 jours est disponible pour Buffalo Narrows situé à 4.3 km.

METAR de l'aéroport Buffalo Narrows - CYVT

CYVT 151037Z AUTO 02004KT 330V080 1 1/4SM -SN SCT007 OVC015 01/M01 A3021 RMK SLP254

Décodage du METAR de l'aéroport Buffalo Narrows (CA)

METAR émis par CYVT le mardi 15 octobre 2019 à 10:37 heure TU. C'est un METAR généré automatiquement. Attention ce METAR est obsolète car il a été émis il y a 15 heure et 23 minutes.

La visibilité est de 2 km = 1.25 sm.

La température est de 1°C = 34 °F et le point rosée est de -1°C = 30 °F . Ce qui correspond à 86% d'humidité relative.

Le QNH est de 1023 hPa = 30.21 inHg

Vent de 4 kt = 7 km/h, orienté à 20°.

Nuages : Nuages épars à 700 ft = 210 mètres. Couverture nuageuse soudée à 1500 ft = 460 mètres.

-SN

RMK SLP254

TAF de l'aéroport Buffalo Narrows - CYVT

CYVT 020038Z 0201/0204 15007KT P6SM FEW030 SCT250 RMK NXT FCST WILL BE ISSUED AT 021345Z

CYVT 020038Z 0201/0204 15007KT P6SM quelques nuages à 030 nuages épars à 250 remarques NXT trombe ST WILL BE ISSUED AT 021345Z

Aéroport à proximité de Buffalo Narrows

Météo générale à 5 jours à Buffalo Narrows (4.3 km)Aéroport Pinehouse Lake (120 km)Aéroport Meadow Lake (191 km)Aéroport Fort McMurray (195 km)Aéroport Cold Lake (199 km)Aéroport La Ronge (213 km)Aéroport Bonnyville (226 km)

Vue aérienne de l'aéroport Buffalo Narrows

NOTAM de l'aéroport Buffalo Narrows

Les NOTAM sont fournis sans aucune garantie de leur actualité. Le pilote est le seul responsable de la vérification de sa validité avant de l'utiliser opérationnellement pour préparer un vol ou l'utiliser lors de sa navigation.

Pas de NOTAM

Sources des données